Egyek, Hungary
Current Conditions -  °F | °C
As of 4:45 PM on Friday 24 Oct 2014 (Local Time) from LHDC Reporting Station
Haze Haze  
Wind Chill: 39°   Ceiling: 1000
Heat Index: 45°   Visibility: 3mi
Dew Point: 43°   Wind: 12mph
Humidity: 93%   Direction: 30°NNE
Pressure: 30.09"   Gusts: NA
Location:  47.62°N, 20.89°E
Report Text: LHDC 241445Z 03010KT 5000 BR OVC010 07/06 Q1019 NOSIG
Loading
Personal Weather Stations






























Interactive Weather Map
Tropical Storm Tracking
New forecast layout! Learn more

10-Day Weather Forecast

Advertisements
Track Severe Weather on mobile